sensor_id;sensor_type;location;lat;lon;timestamp;P1;durP1;ratioP1;P2;durP2;ratioP2
24897;SDS011;12957;49.434;8.684;2023-08-06T00:01:15;3.47;;;2.60;;
24897;SDS011;12957;49.434;8.684;2023-08-06T00:03:41;3.22;;;2.63;;
24897;SDS011;12957;49.434;8.684;2023-08-06T00:06:06;2.67;;;2.50;;
24897;SDS011;12957;49.434;8.684;2023-08-06T00:08:32;2.80;;;2.58;;
24897;SDS011;12957;49.434;8.684;2023-08-06T00:10:57;4.00;;;2.65;;
24897;SDS011;12957;49.434;8.684;2023-08-06T00:13:23;4.10;;;2.55;;
24897;SDS011;12957;49.434;8.684;2023-08-06T00:15:48;2.70;;;2.50;;
24897;SDS011;12957;49.434;8.684;2023-08-06T00:18:14;4.63;;;2.55;;
24897;SDS011;12957;49.434;8.684;2023-08-06T00:20:39;3.13;;;2.67;;
24897;SDS011;12957;49.434;8.684;2023-08-06T00:23:05;2.60;;;2.35;;
24897;SDS011;12957;49.434;8.684;2023-08-06T00:25:32;2.90;;;2.40;;
24897;SDS011;12957;49.434;8.684;2023-08-06T00:27:58;3.47;;;2.25;;
24897;SDS011;12957;49.434;8.684;2023-08-06T00:30:23;2.70;;;2.40;;
24897;SDS011;12957;49.434;8.684;2023-08-06T00:32:49;4.10;;;2.80;;
24897;SDS011;12957;49.434;8.684;2023-08-06T00:35:14;2.80;;;2.53;;
24897;SDS011;12957;49.434;8.684;2023-08-06T00:37:40;2.60;;;2.40;;
24897;SDS011;12957;49.434;8.684;2023-08-06T00:40:06;3.47;;;2.28;;
24897;SDS011;12957;49.434;8.684;2023-08-06T00:42:32;6.00;;;2.22;;
24897;SDS011;12957;49.434;8.684;2023-08-06T00:44:59;5.75;;;2.38;;
24897;SDS011;12957;49.434;8.684;2023-08-06T00:47:25;2.80;;;2.13;;
24897;SDS011;12957;49.434;8.684;2023-08-06T00:49:51;2.33;;;2.10;;
24897;SDS011;12957;49.434;8.684;2023-08-06T00:52:16;2.42;;;2.33;;
24897;SDS011;12957;49.434;8.684;2023-08-06T00:54:42;2.28;;;2.08;;
24897;SDS011;12957;49.434;8.684;2023-08-06T00:57:08;2.50;;;2.35;;
24897;SDS011;12957;49.434;8.684;2023-08-06T00:59:34;2.40;;;2.22;;
24897;SDS011;12957;49.434;8.684;2023-08-06T01:02:00;2.58;;;2.33;;
24897;SDS011;12957;49.434;8.684;2023-08-06T01:04:25;4.20;;;2.35;;
24897;SDS011;12957;49.434;8.684;2023-08-06T01:09:30;3.22;;;1.90;;
24897;SDS011;12957;49.434;8.684;2023-08-06T01:12:09;3.05;;;2.25;;
24897;SDS011;12957;49.434;8.684;2023-08-06T01:14:54;4.18;;;2.45;;
24897;SDS011;12957;49.434;8.684;2023-08-06T01:17:25;2.42;;;2.20;;
24897;SDS011;12957;49.434;8.684;2023-08-06T01:19:51;3.58;;;2.28;;
24897;SDS011;12957;49.434;8.684;2023-08-06T01:22:17;2.22;;;2.03;;
24897;SDS011;12957;49.434;8.684;2023-08-06T01:24:44;3.17;;;2.10;;
24897;SDS011;12957;49.434;8.684;2023-08-06T01:27:38;3.78;;;2.03;;
24897;SDS011;12957;49.434;8.684;2023-08-06T01:30:19;7.60;;;2.35;;
24897;SDS011;12957;49.434;8.684;2023-08-06T01:32:53;4.35;;;2.35;;
24897;SDS011;12957;49.434;8.684;2023-08-06T01:35:23;2.33;;;2.20;;
24897;SDS011;12957;49.434;8.684;2023-08-06T01:37:50;2.22;;;2.03;;
24897;SDS011;12957;49.434;8.684;2023-08-06T01:40:16;2.25;;;2.05;;
24897;SDS011;12957;49.434;8.684;2023-08-06T01:42:41;2.70;;;2.13;;
24897;SDS011;12957;49.434;8.684;2023-08-06T01:45:07;4.43;;;2.00;;
24897;SDS011;12957;49.434;8.684;2023-08-06T01:47:33;3.03;;;1.90;;
24897;SDS011;12957;49.434;8.684;2023-08-06T01:49:59;3.47;;;2.15;;
24897;SDS011;12957;49.434;8.684;2023-08-06T01:52:25;2.90;;;2.05;;
24897;SDS011;12957;49.434;8.684;2023-08-06T01:54:51;2.50;;;2.20;;
24897;SDS011;12957;49.434;8.684;2023-08-06T01:57:16;5.80;;;2.20;;
24897;SDS011;12957;49.434;8.684;2023-08-06T01:59:42;2.67;;;2.13;;
24897;SDS011;12957;49.434;8.684;2023-08-06T02:02:10;2.20;;;2.00;;
24897;SDS011;12957;49.434;8.684;2023-08-06T02:04:35;3.35;;;2.00;;
24897;SDS011;12957;49.434;8.684;2023-08-06T02:07:01;2.13;;;2.00;;
24897;SDS011;12957;49.434;8.684;2023-08-06T02:09:26;4.00;;;2.92;;
24897;SDS011;12957;49.434;8.684;2023-08-06T02:11:52;4.22;;;2.25;;
24897;SDS011;12957;49.434;8.684;2023-08-06T02:14:17;2.83;;;2.00;;
24897;SDS011;12957;49.434;8.684;2023-08-06T02:16:42;3.55;;;2.10;;
24897;SDS011;12957;49.434;8.684;2023-08-06T02:19:08;2.08;;;1.98;;
24897;SDS011;12957;49.434;8.684;2023-08-06T02:21:33;4.25;;;2.17;;
24897;SDS011;12957;49.434;8.684;2023-08-06T02:23:59;2.00;;;1.90;;
24897;SDS011;12957;49.434;8.684;2023-08-06T02:26:24;3.28;;;2.08;;
24897;SDS011;12957;49.434;8.684;2023-08-06T02:28:50;3.25;;;2.22;;
24897;SDS011;12957;49.434;8.684;2023-08-06T02:31:15;2.95;;;2.20;;
24897;SDS011;12957;49.434;8.684;2023-08-06T02:33:41;2.38;;;1.90;;
24897;SDS011;12957;49.434;8.684;2023-08-06T02:36:06;2.85;;;2.20;;
24897;SDS011;12957;49.434;8.684;2023-08-06T02:38:32;3.05;;;1.98;;
24897;SDS011;12957;49.434;8.684;2023-08-06T02:40:57;3.10;;;1.88;;
24897;SDS011;12957;49.434;8.684;2023-08-06T02:43:23;2.08;;;1.70;;
24897;SDS011;12957;49.434;8.684;2023-08-06T02:45:48;2.05;;;1.80;;
24897;SDS011;12957;49.434;8.684;2023-08-06T02:48:14;3.75;;;1.83;;
24897;SDS011;12957;49.434;8.684;2023-08-06T02:50:40;1.80;;;1.70;;
24897;SDS011;12957;49.434;8.684;2023-08-06T02:53:06;3.22;;;2.15;;
24897;SDS011;12957;49.434;8.684;2023-08-06T02:55:35;2.08;;;1.83;;
24897;SDS011;12957;49.434;8.684;2023-08-06T02:58:00;2.47;;;2.00;;
24897;SDS011;12957;49.434;8.684;2023-08-06T03:00:26;3.55;;;1.80;;
24897;SDS011;12957;49.434;8.684;2023-08-06T03:02:52;4.50;;;2.10;;
24897;SDS011;12957;49.434;8.684;2023-08-06T03:05:18;5.05;;;2.10;;
24897;SDS011;12957;49.434;8.684;2023-08-06T03:07:43;2.70;;;1.88;;
24897;SDS011;12957;49.434;8.684;2023-08-06T03:10:09;3.38;;;2.13;;
24897;SDS011;12957;49.434;8.684;2023-08-06T03:12:35;3.33;;;1.83;;
24897;SDS011;12957;49.434;8.684;2023-08-06T03:15:00;3.50;;;1.77;;
24897;SDS011;12957;49.434;8.684;2023-08-06T03:17:26;2.75;;;1.80;;
24897;SDS011;12957;49.434;8.684;2023-08-06T03:19:51;3.08;;;1.98;;
24897;SDS011;12957;49.434;8.684;2023-08-06T03:22:17;2.38;;;1.98;;
24897;SDS011;12957;49.434;8.684;2023-08-06T03:24:42;2.08;;;1.88;;
24897;SDS011;12957;49.434;8.684;2023-08-06T03:27:08;4.43;;;1.80;;
24897;SDS011;12957;49.434;8.684;2023-08-06T03:29:33;1.95;;;1.85;;
24897;SDS011;12957;49.434;8.684;2023-08-06T03:31:59;4.00;;;1.98;;
24897;SDS011;12957;49.434;8.684;2023-08-06T03:34:24;3.78;;;2.00;;
24897;SDS011;12957;49.434;8.684;2023-08-06T03:36:49;4.80;;;1.60;;
24897;SDS011;12957;49.434;8.684;2023-08-06T03:39:15;2.47;;;1.90;;
24897;SDS011;12957;49.434;8.684;2023-08-06T03:41:40;3.28;;;1.80;;
24897;SDS011;12957;49.434;8.684;2023-08-06T03:44:06;2.85;;;1.88;;
24897;SDS011;12957;49.434;8.684;2023-08-06T03:46:31;7.88;;;1.88;;
24897;SDS011;12957;49.434;8.684;2023-08-06T03:49:00;7.20;;;1.85;;
24897;SDS011;12957;49.434;8.684;2023-08-06T03:51:26;6.97;;;2.17;;
24897;SDS011;12957;49.434;8.684;2023-08-06T03:53:51;4.63;;;2.03;;
24897;SDS011;12957;49.434;8.684;2023-08-06T03:56:17;4.25;;;1.77;;
24897;SDS011;12957;49.434;8.684;2023-08-06T03:58:42;3.05;;;2.22;;
24897;SDS011;12957;49.434;8.684;2023-08-06T04:01:08;2.38;;;1.70;;
24897;SDS011;12957;49.434;8.684;2023-08-06T04:03:33;4.32;;;2.00;;
24897;SDS011;12957;49.434;8.684;2023-08-06T04:05:59;2.53;;;1.90;;
24897;SDS011;12957;49.434;8.684;2023-08-06T04:08:26;4.65;;;2.00;;
24897;SDS011;12957;49.434;8.684;2023-08-06T04:10:52;4.40;;;2.38;;
24897;SDS011;12957;49.434;8.684;2023-08-06T04:13:18;4.85;;;2.08;;
24897;SDS011;12957;49.434;8.684;2023-08-06T04:15:43;3.55;;;1.88;;
24897;SDS011;12957;49.434;8.684;2023-08-06T04:18:09;3.72;;;1.95;;
24897;SDS011;12957;49.434;8.684;2023-08-06T04:20:34;7.50;;;2.20;;
24897;SDS011;12957;49.434;8.684;2023-08-06T04:23:04;1.80;;;1.70;;
24897;SDS011;12957;49.434;8.684;2023-08-06T04:25:31;4.82;;;1.67;;
24897;SDS011;12957;49.434;8.684;2023-08-06T04:27:56;4.95;;;1.60;;
24897;SDS011;12957;49.434;8.684;2023-08-06T04:30:22;4.60;;;1.85;;
24897;SDS011;12957;49.434;8.684;2023-08-06T04:32:49;3.35;;;1.70;;
24897;SDS011;12957;49.434;8.684;2023-08-06T04:35:15;3.42;;;1.70;;
24897;SDS011;12957;49.434;8.684;2023-08-06T04:37:40;1.52;;;1.42;;
24897;SDS011;12957;49.434;8.684;2023-08-06T04:40:06;3.20;;;1.35;;
24897;SDS011;12957;49.434;8.684;2023-08-06T04:42:31;4.05;;;1.40;;
24897;SDS011;12957;49.434;8.684;2023-08-06T04:45:01;2.60;;;1.60;;
24897;SDS011;12957;49.434;8.684;2023-08-06T04:47:26;9.35;;;1.70;;
24897;SDS011;12957;49.434;8.684;2023-08-06T04:49:52;2.70;;;1.60;;
24897;SDS011;12957;49.434;8.684;2023-08-06T04:52:18;4.38;;;1.13;;
24897;SDS011;12957;49.434;8.684;2023-08-06T04:54:43;3.35;;;1.17;;
24897;SDS011;12957;49.434;8.684;2023-08-06T04:57:09;4.68;;;1.50;;
24897;SDS011;12957;49.434;8.684;2023-08-06T04:59:35;4.13;;;1.17;;
24897;SDS011;12957;49.434;8.684;2023-08-06T05:02:00;2.60;;;1.27;;
24897;SDS011;12957;49.434;8.684;2023-08-06T05:04:26;2.38;;;1.35;;
24897;SDS011;12957;49.434;8.684;2023-08-06T05:06:52;6.72;;;1.58;;
24897;SDS011;12957;49.434;8.684;2023-08-06T05:09:17;2.83;;;1.27;;
24897;SDS011;12957;49.434;8.684;2023-08-06T05:11:43;5.00;;;1.20;;
24897;SDS011;12957;49.434;8.684;2023-08-06T05:14:08;6.30;;;1.33;;
24897;SDS011;12957;49.434;8.684;2023-08-06T05:16:33;2.67;;;1.08;;
24897;SDS011;12957;49.434;8.684;2023-08-06T05:18:59;1.80;;;1.13;;
24897;SDS011;12957;49.434;8.684;2023-08-06T05:21:24;3.00;;;1.35;;
24897;SDS011;12957;49.434;8.684;2023-08-06T05:23:50;4.22;;;1.42;;
24897;SDS011;12957;49.434;8.684;2023-08-06T05:26:15;2.78;;;1.20;;
24897;SDS011;12957;49.434;8.684;2023-08-06T05:28:44;3.95;;;1.10;;
24897;SDS011;12957;49.434;8.684;2023-08-06T05:31:10;3.75;;;1.60;;
24897;SDS011;12957;49.434;8.684;2023-08-06T05:33:36;5.95;;;1.30;;
24897;SDS011;12957;49.434;8.684;2023-08-06T05:36:02;4.18;;;1.20;;
24897;SDS011;12957;49.434;8.684;2023-08-06T05:38:27;4.65;;;1.30;;
24897;SDS011;12957;49.434;8.684;2023-08-06T05:40:53;3.60;;;1.65;;
24897;SDS011;12957;49.434;8.684;2023-08-06T05:43:18;4.20;;;1.33;;
24897;SDS011;12957;49.434;8.684;2023-08-06T05:45:44;2.50;;;1.40;;
24897;SDS011;12957;49.434;8.684;2023-08-06T05:48:11;4.00;;;1.33;;
24897;SDS011;12957;49.434;8.684;2023-08-06T05:50:36;4.22;;;1.40;;
24897;SDS011;12957;49.434;8.684;2023-08-06T05:53:02;5.15;;;1.40;;
24897;SDS011;12957;49.434;8.684;2023-08-06T05:55:27;2.63;;;1.42;;
24897;SDS011;12957;49.434;8.684;2023-08-06T05:57:53;4.60;;;1.35;;
24897;SDS011;12957;49.434;8.684;2023-08-06T06:00:19;4.65;;;1.15;;
24897;SDS011;12957;49.434;8.684;2023-08-06T06:02:46;3.40;;;1.30;;
24897;SDS011;12957;49.434;8.684;2023-08-06T06:05:12;3.88;;;1.38;;
24897;SDS011;12957;49.434;8.684;2023-08-06T06:07:37;5.28;;;1.35;;
24897;SDS011;12957;49.434;8.684;2023-08-06T06:10:03;4.35;;;1.38;;
24897;SDS011;12957;49.434;8.684;2023-08-06T06:12:28;4.03;;;1.30;;
24897;SDS011;12957;49.434;8.684;2023-08-06T06:14:54;5.05;;;1.40;;
24897;SDS011;12957;49.434;8.684;2023-08-06T06:17:19;4.05;;;1.48;;
24897;SDS011;12957;49.434;8.684;2023-08-06T06:19:45;2.22;;;1.13;;
24897;SDS011;12957;49.434;8.684;2023-08-06T06:22:11;4.15;;;1.45;;
24897;SDS011;12957;49.434;8.684;2023-08-06T06:24:37;5.53;;;1.20;;
24897;SDS011;12957;49.434;8.684;2023-08-06T06:27:04;4.13;;;1.10;;
24897;SDS011;12957;49.434;8.684;2023-08-06T06:29:30;5.13;;;1.63;;
24897;SDS011;12957;49.434;8.684;2023-08-06T06:31:55;3.28;;;1.20;;
24897;SDS011;12957;49.434;8.684;2023-08-06T06:34:21;3.42;;;1.30;;
24897;SDS011;12957;49.434;8.684;2023-08-06T06:36:47;2.90;;;1.33;;
24897;SDS011;12957;49.434;8.684;2023-08-06T06:39:12;5.22;;;1.00;;
24897;SDS011;12957;49.434;8.684;2023-08-06T06:41:38;1.60;;;1.15;;
24897;SDS011;12957;49.434;8.684;2023-08-06T06:44:03;6.63;;;1.45;;
24897;SDS011;12957;49.434;8.684;2023-08-06T06:46:30;1.23;;;0.90;;
24897;SDS011;12957;49.434;8.684;2023-08-06T06:48:55;8.13;;;1.48;;
24897;SDS011;12957;49.434;8.684;2023-08-06T06:51:21;3.75;;;0.93;;
24897;SDS011;12957;49.434;8.684;2023-08-06T06:53:46;2.22;;;1.10;;
24897;SDS011;12957;49.434;8.684;2023-08-06T06:56:12;4.07;;;1.33;;
24897;SDS011;12957;49.434;8.684;2023-08-06T06:58:37;4.22;;;1.10;;
24897;SDS011;12957;49.434;8.684;2023-08-06T07:01:04;1.13;;;1.10;;
24897;SDS011;12957;49.434;8.684;2023-08-06T07:03:30;4.20;;;1.25;;
24897;SDS011;12957;49.434;8.684;2023-08-06T07:05:58;2.20;;;0.90;;
24897;SDS011;12957;49.434;8.684;2023-08-06T07:08:24;2.60;;;0.90;;
24897;SDS011;12957;49.434;8.684;2023-08-06T07:10:50;0.63;;;0.63;;
24897;SDS011;12957;49.434;8.684;2023-08-06T07:13:41;2.28;;;0.98;;
24897;SDS011;12957;49.434;8.684;2023-08-06T07:16:07;2.63;;;0.80;;
24897;SDS011;12957;49.434;8.684;2023-08-06T07:18:32;1.10;;;0.60;;
24897;SDS011;12957;49.434;8.684;2023-08-06T07:20:57;1.50;;;0.90;;
24897;SDS011;12957;49.434;8.684;2023-08-06T07:23:24;1.95;;;0.65;;
24897;SDS011;12957;49.434;8.684;2023-08-06T07:25:50;2.83;;;0.77;;
24897;SDS011;12957;49.434;8.684;2023-08-06T07:28:16;1.25;;;0.70;;
24897;SDS011;12957;49.434;8.684;2023-08-06T07:30:42;0.82;;;0.70;;
24897;SDS011;12957;49.434;8.684;2023-08-06T07:33:08;1.05;;;0.80;;
24897;SDS011;12957;49.434;8.684;2023-08-06T07:35:34;4.63;;;0.77;;
24897;SDS011;12957;49.434;8.684;2023-08-06T07:38:00;2.20;;;0.65;;
24897;SDS011;12957;49.434;8.684;2023-08-06T07:40:26;1.10;;;0.60;;
24897;SDS011;12957;49.434;8.684;2023-08-06T07:42:51;0.60;;;0.60;;
24897;SDS011;12957;49.434;8.684;2023-08-06T07:45:17;2.65;;;0.45;;
24897;SDS011;12957;49.434;8.684;2023-08-06T07:47:42;0.98;;;0.60;;
24897;SDS011;12957;49.434;8.684;2023-08-06T07:50:08;1.65;;;0.50;;
24897;SDS011;12957;49.434;8.684;2023-08-06T07:52:34;0.70;;;0.40;;
24897;SDS011;12957;49.434;8.684;2023-08-06T07:54:59;1.08;;;0.52;;
24897;SDS011;12957;49.434;8.684;2023-08-06T07:57:26;4.40;;;0.57;;
24897;SDS011;12957;49.434;8.684;2023-08-06T07:59:52;1.08;;;0.40;;
24897;SDS011;12957;49.434;8.684;2023-08-06T08:02:19;0.60;;;0.60;;
24897;SDS011;12957;49.434;8.684;2023-08-06T08:04:46;2.42;;;0.70;;
24897;SDS011;12957;49.434;8.684;2023-08-06T08:07:12;0.65;;;0.57;;
24897;SDS011;12957;49.434;8.684;2023-08-06T08:09:38;1.25;;;0.60;;
24897;SDS011;12957;49.434;8.684;2023-08-06T08:12:03;0.52;;;0.50;;
24897;SDS011;12957;49.434;8.684;2023-08-06T08:14:29;0.90;;;0.55;;
24897;SDS011;12957;49.434;8.684;2023-08-06T08:17:00;0.55;;;0.55;;
24897;SDS011;12957;49.434;8.684;2023-08-06T08:19:26;1.45;;;0.50;;
24897;SDS011;12957;49.434;8.684;2023-08-06T08:21:53;0.40;;;0.40;;
24897;SDS011;12957;49.434;8.684;2023-08-06T08:24:19;0.52;;;0.50;;
24897;SDS011;12957;49.434;8.684;2023-08-06T08:26:45;0.60;;;0.60;;
24897;SDS011;12957;49.434;8.684;2023-08-06T08:29:10;0.90;;;0.70;;
24897;SDS011;12957;49.434;8.684;2023-08-06T08:31:36;3.92;;;0.50;;
24897;SDS011;12957;49.434;8.684;2023-08-06T08:34:04;0.88;;;0.50;;
24897;SDS011;12957;49.434;8.684;2023-08-06T08:36:30;2.42;;;0.50;;
24897;SDS011;12957;49.434;8.684;2023-08-06T08:38:56;1.27;;;0.60;;
24897;SDS011;12957;49.434;8.684;2023-08-06T08:41:21;1.75;;;0.82;;
24897;SDS011;12957;49.434;8.684;2023-08-06T08:43:49;1.00;;;0.50;;
24897;SDS011;12957;49.434;8.684;2023-08-06T08:46:17;0.40;;;0.40;;
24897;SDS011;12957;49.434;8.684;2023-08-06T08:48:45;0.90;;;0.73;;
24897;SDS011;12957;49.434;8.684;2023-08-06T08:51:11;1.45;;;0.52;;
24897;SDS011;12957;49.434;8.684;2023-08-06T08:53:37;0.47;;;0.47;;
24897;SDS011;12957;49.434;8.684;2023-08-06T08:56:04;0.60;;;0.55;;
24897;SDS011;12957;49.434;8.684;2023-08-06T08:58:30;0.50;;;0.50;;
24897;SDS011;12957;49.434;8.684;2023-08-06T09:00:56;1.80;;;0.57;;
24897;SDS011;12957;49.434;8.684;2023-08-06T09:03:22;0.52;;;0.47;;
24897;SDS011;12957;49.434;8.684;2023-08-06T09:05:48;1.25;;;0.47;;
24897;SDS011;12957;49.434;8.684;2023-08-06T09:08:16;0.47;;;0.47;;
24897;SDS011;12957;49.434;8.684;2023-08-06T09:10:43;1.38;;;0.30;;
24897;SDS011;12957;49.434;8.684;2023-08-06T09:13:09;0.82;;;0.43;;
24897;SDS011;12957;49.434;8.684;2023-08-06T09:15:37;0.93;;;0.47;;
24897;SDS011;12957;49.434;8.684;2023-08-06T09:18:08;0.50;;;0.50;;
24897;SDS011;12957;49.434;8.684;2023-08-06T09:20:34;0.40;;;0.40;;
24897;SDS011;12957;49.434;8.684;2023-08-06T09:23:06;0.52;;;0.52;;
24897;SDS011;12957;49.434;8.684;2023-08-06T09:25:36;1.75;;;0.50;;
24897;SDS011;12957;49.434;8.684;2023-08-06T09:28:03;2.17;;;0.30;;
24897;SDS011;12957;49.434;8.684;2023-08-06T09:30:29;0.30;;;0.28;;
24897;SDS011;12957;49.434;8.684;2023-08-06T09:32:58;3.10;;;0.32;;
24897;SDS011;12957;49.434;8.684;2023-08-06T09:35:24;0.50;;;0.50;;
24897;SDS011;12957;49.434;8.684;2023-08-06T09:37:49;0.50;;;0.50;;
24897;SDS011;12957;49.434;8.684;2023-08-06T09:40:23;0.20;;;0.20;;
24897;SDS011;12957;49.434;8.684;2023-08-06T09:42:50;0.40;;;0.40;;
24897;SDS011;12957;49.434;8.684;2023-08-06T09:45:16;0.43;;;0.30;;
24897;SDS011;12957;49.434;8.684;2023-08-06T09:47:42;1.13;;;0.35;;
24897;SDS011;12957;49.434;8.684;2023-08-06T09:50:17;0.35;;;0.35;;
24897;SDS011;12957;49.434;8.684;2023-08-06T09:52:43;0.30;;;0.30;;
24897;SDS011;12957;49.434;8.684;2023-08-06T09:55:10;0.32;;;0.32;;
24897;SDS011;12957;49.434;8.684;2023-08-06T09:57:36;0.50;;;0.50;;
24897;SDS011;12957;49.434;8.684;2023-08-06T10:00:02;0.50;;;0.50;;
24897;SDS011;12957;49.434;8.684;2023-08-06T10:02:28;0.88;;;0.50;;
24897;SDS011;12957;49.434;8.684;2023-08-06T10:04:54;1.17;;;0.68;;
24897;SDS011;12957;49.434;8.684;2023-08-06T10:07:20;0.57;;;0.57;;
24897;SDS011;12957;49.434;8.684;2023-08-06T10:09:47;0.63;;;0.60;;
24897;SDS011;12957;49.434;8.684;2023-08-06T10:12:13;0.50;;;0.50;;
24897;SDS011;12957;49.434;8.684;2023-08-06T10:14:39;0.70;;;0.70;;
24897;SDS011;12957;49.434;8.684;2023-08-06T10:17:06;0.82;;;0.50;;
24897;SDS011;12957;49.434;8.684;2023-08-06T10:19:32;0.30;;;0.30;;
24897;SDS011;12957;49.434;8.684;2023-08-06T10:22:07;0.50;;;0.50;;
24897;SDS011;12957;49.434;8.684;2023-08-06T10:29:56;0.52;;;0.52;;
24897;SDS011;12957;49.434;8.684;2023-08-06T10:32:26;0.55;;;0.45;;
24897;SDS011;12957;49.434;8.684;2023-08-06T10:35:36;0.40;;;0.40;;
24897;SDS011;12957;49.434;8.684;2023-08-06T10:38:09;1.08;;;0.80;;
24897;SDS011;12957;49.434;8.684;2023-08-06T10:40:36;2.05;;;0.43;;
24897;SDS011;12957;49.434;8.684;2023-08-06T10:43:04;0.52;;;0.50;;
24897;SDS011;12957;49.434;8.684;2023-08-06T10:45:34;2.10;;;0.60;;
24897;SDS011;12957;49.434;8.684;2023-08-06T10:48:00;0.47;;;0.47;;
24897;SDS011;12957;49.434;8.684;2023-08-06T10:50:25;0.70;;;0.47;;
24897;SDS011;12957;49.434;8.684;2023-08-06T10:52:51;0.40;;;0.40;;
24897;SDS011;12957;49.434;8.684;2023-08-06T10:55:24;0.32;;;0.32;;
24897;SDS011;12957;49.434;8.684;2023-08-06T10:57:55;0.50;;;0.50;;
24897;SDS011;12957;49.434;8.684;2023-08-06T11:00:21;0.50;;;0.50;;
24897;SDS011;12957;49.434;8.684;2023-08-06T11:02:48;0.50;;;0.50;;
24897;SDS011;12957;49.434;8.684;2023-08-06T11:05:14;0.50;;;0.50;;
24897;SDS011;12957;49.434;8.684;2023-08-06T11:07:40;0.80;;;0.50;;
24897;SDS011;12957;49.434;8.684;2023-08-06T11:10:06;2.53;;;0.40;;
24897;SDS011;12957;49.434;8.684;2023-08-06T11:12:33;2.30;;;0.63;;
24897;SDS011;12957;49.434;8.684;2023-08-06T11:14:59;0.43;;;0.43;;
24897;SDS011;12957;49.434;8.684;2023-08-06T11:17:24;0.40;;;0.40;;
24897;SDS011;12957;49.434;8.684;2023-08-06T11:19:51;0.60;;;0.60;;
24897;SDS011;12957;49.434;8.684;2023-08-06T11:22:20;0.40;;;0.40;;
24897;SDS011;12957;49.434;8.684;2023-08-06T11:24:46;0.50;;;0.50;;
24897;SDS011;12957;49.434;8.684;2023-08-06T11:27:12;0.52;;;0.52;;
24897;SDS011;12957;49.434;8.684;2023-08-06T11:29:39;0.43;;;0.43;;
24897;SDS011;12957;49.434;8.684;2023-08-06T11:32:06;0.47;;;0.47;;
24897;SDS011;12957;49.434;8.684;2023-08-06T11:34:31;0.63;;;0.60;;
24897;SDS011;12957;49.434;8.684;2023-08-06T11:36:57;0.77;;;0.77;;
24897;SDS011;12957;49.434;8.684;2023-08-06T11:39:23;0.75;;;0.75;;
24897;SDS011;12957;49.434;8.684;2023-08-06T11:41:49;0.70;;;0.70;;
24897;SDS011;12957;49.434;8.684;2023-08-06T11:44:14;0.60;;;0.60;;
24897;SDS011;12957;49.434;8.684;2023-08-06T11:46:49;0.77;;;0.77;;
24897;SDS011;12957;49.434;8.684;2023-08-06T11:49:17;1.48;;;0.80;;
24897;SDS011;12957;49.434;8.684;2023-08-06T11:51:46;0.90;;;0.90;;
24897;SDS011;12957;49.434;8.684;2023-08-06T11:54:12;0.85;;;0.85;;
24897;SDS011;12957;49.434;8.684;2023-08-06T11:56:37;0.80;;;0.80;;
24897;SDS011;12957;49.434;8.684;2023-08-06T11:59:03;0.80;;;0.80;;
24897;SDS011;12957;49.434;8.684;2023-08-06T12:01:28;4.72;;;0.88;;
24897;SDS011;12957;49.434;8.684;2023-08-06T12:04:04;1.45;;;0.80;;
24897;SDS011;12957;49.434;8.684;2023-08-06T12:06:29;0.93;;;0.93;;
24897;SDS011;12957;49.434;8.684;2023-08-06T12:08:55;0.85;;;0.85;;
24897;SDS011;12957;49.434;8.684;2023-08-06T12:11:21;1.73;;;0.80;;
24897;SDS011;12957;49.434;8.684;2023-08-06T12:13:50;1.00;;;0.95;;
24897;SDS011;12957;49.434;8.684;2023-08-06T12:16:16;0.80;;;0.80;;
24897;SDS011;12957;49.434;8.684;2023-08-06T12:18:45;1.58;;;1.10;;
24897;SDS011;12957;49.434;8.684;2023-08-06T12:21:13;1.15;;;0.93;;
24897;SDS011;12957;49.434;8.684;2023-08-06T12:23:39;1.15;;;1.05;;
24897;SDS011;12957;49.434;8.684;2023-08-06T12:26:04;1.08;;;1.08;;
24897;SDS011;12957;49.434;8.684;2023-08-06T12:28:30;9.18;;;1.20;;
24897;SDS011;12957;49.434;8.684;2023-08-06T12:30:55;1.30;;;1.20;;
24897;SDS011;12957;49.434;8.684;2023-08-06T12:33:21;0.80;;;0.80;;
24897;SDS011;12957;49.434;8.684;2023-08-06T12:35:46;1.10;;;1.00;;
24897;SDS011;12957;49.434;8.684;2023-08-06T12:38:11;0.93;;;0.93;;
24897;SDS011;12957;49.434;8.684;2023-08-06T12:40:38;1.10;;;1.08;;
24897;SDS011;12957;49.434;8.684;2023-08-06T12:43:04;2.15;;;1.20;;
24897;SDS011;12957;49.434;8.684;2023-08-06T12:45:29;3.22;;;1.00;;
24897;SDS011;12957;49.434;8.684;2023-08-06T12:47:55;1.15;;;1.10;;
24897;SDS011;12957;49.434;8.684;2023-08-06T12:50:20;1.10;;;1.10;;
24897;SDS011;12957;49.434;8.684;2023-08-06T12:52:46;1.23;;;1.20;;
24897;SDS011;12957;49.434;8.684;2023-08-06T12:55:11;1.10;;;1.05;;
24897;SDS011;12957;49.434;8.684;2023-08-06T12:57:37;2.78;;;1.05;;
24897;SDS011;12957;49.434;8.684;2023-08-06T13:00:02;1.67;;;1.00;;
24897;SDS011;12957;49.434;8.684;2023-08-06T13:02:28;0.73;;;0.63;;
24897;SDS011;12957;49.434;8.684;2023-08-06T13:04:55;2.10;;;0.70;;
24897;SDS011;12957;49.434;8.684;2023-08-06T13:07:20;0.50;;;0.50;;
24897;SDS011;12957;49.434;8.684;2023-08-06T13:09:46;1.85;;;0.90;;
24897;SDS011;12957;49.434;8.684;2023-08-06T13:12:11;0.77;;;0.68;;
24897;SDS011;12957;49.434;8.684;2023-08-06T13:14:37;0.50;;;0.50;;
24897;SDS011;12957;49.434;8.684;2023-08-06T13:17:02;0.60;;;0.60;;
24897;SDS011;12957;49.434;8.684;2023-08-06T13:19:31;0.70;;;0.70;;
24897;SDS011;12957;49.434;8.684;2023-08-06T13:22:00;0.73;;;0.68;;
24897;SDS011;12957;49.434;8.684;2023-08-06T13:24:27;0.68;;;0.68;;
24897;SDS011;12957;49.434;8.684;2023-08-06T13:26:53;0.77;;;0.77;;
24897;SDS011;12957;49.434;8.684;2023-08-06T13:29:19;0.68;;;0.68;;
24897;SDS011;12957;49.434;8.684;2023-08-06T13:31:45;5.95;;;0.90;;
24897;SDS011;12957;49.434;8.684;2023-08-06T13:34:10;0.50;;;0.50;;
24897;SDS011;12957;49.434;8.684;2023-08-06T13:36:36;0.70;;;0.70;;
24897;SDS011;12957;49.434;8.684;2023-08-06T13:39:01;0.85;;;0.85;;
24897;SDS011;12957;49.434;8.684;2023-08-06T13:41:28;0.60;;;0.60;;
24897;SDS011;12957;49.434;8.684;2023-08-06T13:43:54;1.13;;;0.77;;
24897;SDS011;12957;49.434;8.684;2023-08-06T13:46:19;0.80;;;0.80;;
24897;SDS011;12957;49.434;8.684;2023-08-06T13:48:46;0.82;;;0.75;;
24897;SDS011;12957;49.434;8.684;2023-08-06T13:51:12;1.80;;;0.98;;
24897;SDS011;12957;49.434;8.684;2023-08-06T13:53:38;0.70;;;0.70;;
24897;SDS011;12957;49.434;8.684;2023-08-06T13:56:05;0.80;;;0.80;;
24897;SDS011;12957;49.434;8.684;2023-08-06T13:58:31;0.70;;;0.70;;
24897;SDS011;12957;49.434;8.684;2023-08-06T14:00:57;1.17;;;0.80;;
24897;SDS011;12957;49.434;8.684;2023-08-06T14:03:23;1.15;;;1.10;;
24897;SDS011;12957;49.434;8.684;2023-08-06T14:05:48;6.03;;;0.68;;
24897;SDS011;12957;49.434;8.684;2023-08-06T14:08:14;1.17;;;0.80;;
24897;SDS011;12957;49.434;8.684;2023-08-06T14:10:42;1.02;;;0.90;;
24897;SDS011;12957;49.434;8.684;2023-08-06T14:13:08;1.30;;;0.70;;
24897;SDS011;12957;49.434;8.684;2023-08-06T14:15:33;2.60;;;0.60;;
24897;SDS011;12957;49.434;8.684;2023-08-06T14:18:00;0.98;;;0.93;;
24897;SDS011;12957;49.434;8.684;2023-08-06T14:20:25;4.40;;;1.00;;
24897;SDS011;12957;49.434;8.684;2023-08-06T14:22:51;1.85;;;0.90;;
24897;SDS011;12957;49.434;8.684;2023-08-06T14:25:16;0.80;;;0.80;;
24897;SDS011;12957;49.434;8.684;2023-08-06T14:27:42;2.00;;;0.70;;
24897;SDS011;12957;49.434;8.684;2023-08-06T14:30:07;0.80;;;0.80;;
24897;SDS011;12957;49.434;8.684;2023-08-06T14:32:33;0.80;;;0.80;;
24897;SDS011;12957;49.434;8.684;2023-08-06T14:34:59;1.27;;;1.00;;
24897;SDS011;12957;49.434;8.684;2023-08-06T14:37:25;2.65;;;0.80;;
24897;SDS011;12957;49.434;8.684;2023-08-06T14:39:51;7.45;;;0.95;;
24897;SDS011;12957;49.434;8.684;2023-08-06T14:42:17;0.70;;;0.70;;
24897;SDS011;12957;49.434;8.684;2023-08-06T14:44:42;1.58;;;0.80;;
24897;SDS011;12957;49.434;8.684;2023-08-06T14:47:08;1.38;;;1.13;;
24897;SDS011;12957;49.434;8.684;2023-08-06T14:49:33;1.00;;;0.90;;
24897;SDS011;12957;49.434;8.684;2023-08-06T14:51:59;1.70;;;1.00;;